Billings, MT

4:04 PM MST on February 13, 2016 (GMT -0700)
South of Castle Rock Park | | Change Station
CLOSE
Current Station
Personal Weather Station
Location: Billings, MT
Elevation: 3297 ft
Nearby Weather Stations

Elev 3297 ft 45.82 °N, 108.50 °W | Updated 1 second ago

Scattered Clouds
Scattered Clouds
50.0 °F
Feels Like 45 °F
N
15.2
Wind Variable Wind from West
Gusts 21.5 mph

Today
High -- | Low -- °F
--% Chance of Precip.
Yesterday
High -- | Low -- °F
Precip. -- in
Pressure 29.99 in
Visibility 10.0 miles
Clouds Few 7000 ft
Few 9000 ft
Scattered Clouds 20000 ft
Windchill 45 °F
Dew Point 22 °F
Humidity 34%
Rainfall 0.00 in
Snow Depth Not available.
7:19 AM 5:37 PM
Waxing Crescent, 35% visible
METAR KBIL 132253Z 29024G37KT 10SM FEW070 FEW090 SCT200 09/M08 A2995 RMK AO2 PK WND 29040/2206 SLP154 VIRGA VCSH N-E T00941083 $
Pressure 29.99 in
Visibility 10.0 miles
Clouds Few 7000 ft
Few 9000 ft
Scattered Clouds 20000 ft
Windchill 45 °F
Dew Point 22 °F
Humidity 34%
Rainfall 0.00 in
Snow Depth Not available.
7:19 AM 5:37 PM
Waxing Crescent, 35% visible
METAR KBIL 132253Z 29024G37KT 10SM FEW070 FEW090 SCT200 09/M08 A2995 RMK AO2 PK WND 29040/2206 SLP154 VIRGA VCSH N-E T00941083 $

10-Day Weather Forecast

Almanac

Astronomy

Feb. 13, 2016 Rise Set
Actual Time
Civil Twilight
Nautical Twilight
Astronomical Twilight
Moon
Length of Visible Light
Length of Day
Tomorrow will be .
, % of the Moon is Illuminated

Today's Extremes

State Highs State Lows

Community

WunderPhotos

Upload Photos

1,892,692 photos uploaded!

WunderBlog® & News

Nearby

Air Quality

  Air Quality AQ Index Pollutant
Not available.

Snow Depth

Station Depth Elevation

Earthquake Activity

City Distance Mag. Time & Date
Minimum magnitude displayed is 2.5.

Coastal Water Temperatures

Place Temperature

Stations

Nearby Weather Stations

Station Location Temp. Windchill Dew Point Humidity Wind Precip. Elev Updated Type
                   

Watches & Warnings

There are currently no watches in effect.